Time;durP1;ratioP1;P1;durP2;ratioP2;P2;SDS_P1;SDS_P2;PMS_P1;PMS_P2;Temp;Humidity;BMP_temperature;BMP_pressure;BME280_temperature;BME280_humidity;BME280_pressure;Samples;Min_cycle;Max_cycle;Signal;HPM_P1;HPM_P2
2022/10/01 00:01:03;;;;;;;0.67;0.40;;;;;;;;;;5073511;28;20017;-63
2022/10/01 00:03:30;;;;;;;0.93;0.60;;;;;;;;;;5070399;28;20029;-63
2022/10/01 00:06:01;;;;;;;0.83;0.40;;;;;;;;;;5068694;28;20016;-63
2022/10/01 00:08:29;;;;;;;0.53;0.47;;;;;;;;;;5068591;28;20036;-63
2022/10/01 00:10:56;;;;;;;1.10;0.60;;;;;;;;;;5069009;28;20033;-63
2022/10/01 00:13:23;;;;;;;1.43;0.90;;;;;;;;;;5071421;28;20036;-63
2022/10/01 00:15:50;;;;;;;1.60;0.60;;;;;;;;;;5073376;28;20051;-63
2022/10/01 00:18:16;;;;;;;1.60;1.10;;;;;;;;;;5074158;28;20379;-64
2022/10/01 00:20:43;;;;;;;1.40;0.93;;;;;;;;;;5073950;28;20025;-63
2022/10/01 00:23:11;;;;;;;1.13;0.73;;;;;;;;;;5073721;28;20056;-63
2022/10/01 00:25:38;;;;;;;1.97;1.17;;;;;;;;;;5071203;28;20103;-63
2022/10/01 00:28:05;;;;;;;2.97;1.27;;;;;;;;;;5068620;28;20028;-63
2022/10/01 00:30:32;;;;;;;1.87;1.03;;;;;;;;;;5068571;28;20471;-63
2022/10/01 00:32:58;;;;;;;1.53;0.83;;;;;;;;;;5068703;28;20060;-65
2022/10/01 00:35:25;;;;;;;1.50;0.97;;;;;;;;;;5070741;28;20074;-62
2022/10/01 00:37:52;;;;;;;1.70;0.93;;;;;;;;;;5073617;28;20055;-63
2022/10/01 00:40:20;;;;;;;0.70;0.50;;;;;;;;;;5073561;28;20032;-63
2022/10/01 00:42:47;;;;;;;0.70;0.50;;;;;;;;;;5073343;28;20033;-62
2022/10/01 00:45:15;;;;;;;1.27;0.57;;;;;;;;;;5073078;28;20119;-63
2022/10/01 00:47:43;;;;;;;1.03;0.57;;;;;;;;;;5071442;28;20032;-63
2022/10/01 00:50:18;;;;;;;0.70;0.43;;;;;;;;;;5068278;28;20043;-63
2022/10/01 00:52:47;;;;;;;0.70;0.57;;;;;;;;;;5067166;28;20028;-63
2022/10/01 00:55:19;;;;;;;1.23;0.67;;;;;;;;;;5068421;28;20025;-63
2022/10/01 00:57:45;;;;;;;1.30;0.60;;;;;;;;;;5070177;28;20028;-63
2022/10/01 01:00:13;;;;;;;0.60;0.50;;;;;;;;;;5073265;28;20020;-63
2022/10/01 01:02:40;;;;;;;1.73;0.93;;;;;;;;;;5073202;28;20024;-62
2022/10/01 01:05:12;;;;;;;0.93;0.57;;;;;;;;;;5073287;28;20017;-63
2022/10/01 01:07:40;;;;;;;2.13;1.20;;;;;;;;;;5072670;28;20033;-62
2022/10/01 01:10:08;;;;;;;1.37;0.70;;;;;;;;;;5070405;28;20039;-63
2022/10/01 01:12:37;;;;;;;1.50;0.67;;;;;;;;;;5067551;28;20035;-63
2022/10/01 01:15:07;;;;;;;2.93;0.80;;;;;;;;;;5067690;28;20032;-63
2022/10/01 01:17:39;;;;;;;0.83;0.50;;;;;;;;;;5067817;28;20024;-62
2022/10/01 01:20:06;;;;;;;0.90;0.63;;;;;;;;;;5069464;28;20024;-62
2022/10/01 01:22:35;;;;;;;1.40;0.83;;;;;;;;;;5072449;28;20039;-62
2022/10/01 01:25:15;;;;;;;1.17;0.80;;;;;;;;;;5072761;28;20391;-63
2022/10/01 01:27:56;;;;;;;1.40;1.00;;;;;;;;;;5072857;28;20017;-63
2022/10/01 01:30:22;;;;;;;1.80;1.20;;;;;;;;;;5072692;28;20028;-62
2022/10/01 01:32:52;;;;;;;5.13;1.60;;;;;;;;;;5069708;28;20104;-63
2022/10/01 01:35:33;;;;;;;1.33;0.90;;;;;;;;;;5067581;28;20037;-63
2022/10/01 01:38:13;;;;;;;1.97;1.13;;;;;;;;;;5066169;28;20356;-63
2022/10/01 01:40:41;;;;;;;0.67;0.50;;;;;;;;;;5067522;28;20890;-62
2022/10/01 01:43:10;;;;;;;2.43;0.70;;;;;;;;;;5070679;28;20122;-62
2022/10/01 01:45:38;;;;;;;1.63;0.90;;;;;;;;;;5072574;28;20111;-62
2022/10/01 01:48:08;;;;;;;3.30;1.27;;;;;;;;;;5072531;28;20109;-62
2022/10/01 01:50:41;;;;;;;1.90;0.77;;;;;;;;;;5072408;28;20032;-62
2022/10/01 01:53:07;;;;;;;8.13;1.00;;;;;;;;;;5072801;28;20376;-62
2022/10/01 01:55:35;;;;;;;2.13;0.80;;;;;;;;;;5068214;28;20020;-63
2022/10/01 01:58:02;;;;;;;1.60;0.80;;;;;;;;;;5066845;28;20028;-62
2022/10/01 02:00:28;;;;;;;1.97;0.80;;;;;;;;;;5067283;28;20024;-62
2022/10/01 02:02:56;;;;;;;1.00;0.70;;;;;;;;;;5066343;28;20039;-62
2022/10/01 02:05:25;;;;;;;0.37;0.37;;;;;;;;;;5070147;28;20023;-62
2022/10/01 02:08:00;;;;;;;6.30;0.97;;;;;;;;;;5072236;28;20039;-62
2022/10/01 02:10:36;;;;;;;1.47;0.80;;;;;;;;;;5072124;28;20055;-62
2022/10/01 02:13:23;;;;;;;1.97;0.90;;;;;;;;;;5072125;28;20039;-62
2022/10/01 02:16:07;;;;;;;1.50;1.00;;;;;;;;;;5072174;28;20021;-62
2022/10/01 02:18:55;;;;;;;7.00;0.87;;;;;;;;;;5066958;28;20021;-62
2022/10/01 02:21:32;;;;;;;1.00;0.70;;;;;;;;;;5066719;28;20031;-62
2022/10/01 02:24:13;;;;;;;0.57;0.40;;;;;;;;;;5066944;28;20024;-62
2022/10/01 02:26:42;;;;;;;1.80;1.10;;;;;;;;;;5067462;28;20054;-62
2022/10/01 02:29:10;;;;;;;3.23;0.77;;;;;;;;;;5071905;28;20479;-62
2022/10/01 02:31:37;;;;;;;1.93;0.80;;;;;;;;;;5072155;28;20577;-62
2022/10/01 02:34:05;;;;;;;3.77;1.80;;;;;;;;;;5072064;28;20502;-62
2022/10/01 02:36:33;;;;;;;3.27;1.00;;;;;;;;;;5071622;28;20028;-62
2022/10/01 02:39:00;;;;;;;0.73;0.40;;;;;;;;;;5070756;28;20035;-62
2022/10/01 02:41:30;;;;;;;1.03;0.73;;;;;;;;;;5066561;28;20510;-62
2022/10/01 02:43:59;;;;;;;1.83;1.30;;;;;;;;;;5067050;28;20376;-62
2022/10/01 02:46:29;;;;;;;1.63;1.00;;;;;;;;;;5066717;28;20033;-62
2022/10/01 02:48:56;;;;;;;1.63;1.17;;;;;;;;;;5067155;28;20032;-62
2022/10/01 02:51:41;;;;;;;0.60;0.60;;;;;;;;;;5071864;28;20028;-62
2022/10/01 02:54:14;;;;;;;2.10;0.85;;;;;;;;;;5071565;28;20075;-62
2022/10/01 02:59:39;;;;;;;1.13;0.43;;;;;;;;;;5027025;28;20154;-62
2022/10/01 03:02:06;;;;;;;0.53;0.50;;;;;;;;;;5068591;28;20021;-62
2022/10/01 03:04:33;;;;;;;0.50;0.50;;;;;;;;;;5066273;28;20039;-62
2022/10/01 03:07:02;;;;;;;1.20;0.80;;;;;;;;;;5066458;28;20071;-62
2022/10/01 03:09:33;;;;;;;0.87;0.77;;;;;;;;;;5066412;28;20032;-62
2022/10/01 03:12:00;;;;;;;0.90;0.70;;;;;;;;;;5068603;28;20021;-62
2022/10/01 03:14:27;;;;;;;2.13;1.53;;;;;;;;;;5071942;28;20109;-62
2022/10/01 03:16:54;;;;;;;1.87;1.20;;;;;;;;;;5074899;28;20021;-62
2022/10/01 03:19:21;;;;;;;0.87;0.50;;;;;;;;;;5075122;28;20032;-62
2022/10/01 03:21:48;;;;;;;1.90;0.83;;;;;;;;;;5074959;28;20037;-62
2022/10/01 03:24:14;;;;;;;0.80;0.73;;;;;;;;;;5072920;28;20486;-64
2022/10/01 03:26:41;;;;;;;0.53;0.47;;;;;;;;;;5069988;28;20021;-62
2022/10/01 03:29:08;;;;;;;0.57;0.53;;;;;;;;;;5069416;28;20028;-62
2022/10/01 03:31:36;;;;;;;0.93;0.63;;;;;;;;;;5069660;28;20032;-62
2022/10/01 03:34:03;;;;;;;2.77;1.20;;;;;;;;;;5071054;28;20165;-62
2022/10/01 03:36:30;;;;;;;1.07;0.70;;;;;;;;;;5074940;28;20025;-62
2022/10/01 03:38:56;;;;;;;0.50;0.40;;;;;;;;;;5075012;28;20032;-62
2022/10/01 03:41:23;;;;;;;0.57;0.40;;;;;;;;;;5074982;28;20029;-63
2022/10/01 03:43:50;;;;;;;1.10;0.83;;;;;;;;;;5075007;28;20059;-62
2022/10/01 03:46:17;;;;;;;1.10;0.80;;;;;;;;;;5073210;28;20031;-62
2022/10/01 03:48:43;;;;;;;1.27;0.87;;;;;;;;;;5069744;28;20017;-62
2022/10/01 03:51:10;;;;;;;0.33;0.30;;;;;;;;;;5069165;28;20047;-62
2022/10/01 03:53:37;;;;;;;1.53;0.70;;;;;;;;;;5069497;28;20025;-61
2022/10/01 03:56:04;;;;;;;1.47;0.77;;;;;;;;;;5069890;28;20479;-62
2022/10/01 03:58:30;;;;;;;4.47;1.27;;;;;;;;;;5074553;28;20024;-62
2022/10/01 04:00:58;;;;;;;0.80;0.70;;;;;;;;;;5074328;28;20028;-61
2022/10/01 04:03:25;;;;;;;0.60;0.50;;;;;;;;;;5074465;28;20115;-61
2022/10/01 04:05:51;;;;;;;1.10;0.60;;;;;;;;;;5074463;28;20505;-61
2022/10/01 04:08:18;;;;;;;0.57;0.57;;;;;;;;;;5073004;28;20025;-62
2022/10/01 04:10:45;;;;;;;1.47;0.80;;;;;;;;;;5068579;28;20083;-62
2022/10/01 04:13:11;;;;;;;1.23;0.90;;;;;;;;;;5069258;28;20039;-62
2022/10/01 04:15:39;;;;;;;1.90;0.93;;;;;;;;;;5052585;28;20057;-62
2022/10/01 04:18:05;;;;;;;2.23;1.10;;;;;;;;;;5049001;28;20090;-62
2022/10/01 04:20:33;;;;;;;1.80;0.93;;;;;;;;;;5054175;28;20017;-62
2022/10/01 04:23:00;;;;;;;0.57;0.50;;;;;;;;;;5054313;28;20105;-61
2022/10/01 04:25:27;;;;;;;1.30;0.97;;;;;;;;;;5053363;28;20029;-63
2022/10/01 04:28:00;;;;;;;3.30;1.37;;;;;;;;;;5053890;28;20036;-62
2022/10/01 04:30:28;;;;;;;1.97;0.90;;;;;;;;;;5053652;28;20119;-62
2022/10/01 04:32:55;;;;;;;1.13;0.83;;;;;;;;;;5048894;28;20384;-61
2022/10/01 04:35:21;;;;;;;0.77;0.70;;;;;;;;;;5048827;28;20096;-62
2022/10/01 04:37:55;;;;;;;2.53;1.17;;;;;;;;;;5062238;28;20025;-61
2022/10/01 04:40:21;;;;;;;0.93;0.60;;;;;;;;;;5068118;28;20035;-62
2022/10/01 04:42:48;;;;;;;11.23;1.03;;;;;;;;;;5073570;28;20078;-61
2022/10/01 04:45:15;;;;;;;2.93;1.03;;;;;;;;;;5073472;28;20032;-61
2022/10/01 04:47:48;;;;;;;0.53;0.40;;;;;;;;;;5073594;28;20360;-62
2022/10/01 04:50:15;;;;;;;0.63;0.40;;;;;;;;;;5073429;28;20064;-62
2022/10/01 04:52:42;;;;;;;1.77;0.63;;;;;;;;;;5073269;28;20032;-63
2022/10/01 04:55:09;;;;;;;1.27;0.60;;;;;;;;;;5068025;28;20034;-61
2022/10/01 04:57:36;;;;;;;0.77;0.53;;;;;;;;;;5077985;28;20012;-61
2022/10/01 05:00:04;;;;;;;0.83;0.63;;;;;;;;;;5088779;28;20039;-61
2022/10/01 05:02:33;;;;;;;0.77;0.57;;;;;;;;;;5071917;28;20471;-62
2022/10/01 05:05:07;;;;;;;2.17;0.87;;;;;;;;;;5072774;28;20028;-61
2022/10/01 05:07:35;;;;;;;4.23;1.00;;;;;;;;;;5073050;28;20024;-61
2022/10/01 05:10:01;;;;;;;1.87;1.47;;;;;;;;;;5073069;28;20025;-61
2022/10/01 05:12:28;;;;;;;0.83;0.70;;;;;;;;;;5073445;28;20020;-61
2022/10/01 05:14:55;;;;;;;7.03;0.87;;;;;;;;;;5081142;28;20039;-61
2022/10/01 05:17:22;;;;;;;1.03;0.90;;;;;;;;;;5068121;28;20045;-61
2022/10/01 05:19:49;;;;;;;0.97;0.77;;;;;;;;;;5067963;28;20060;-61
2022/10/01 05:22:16;;;;;;;0.83;0.53;;;;;;;;;;5068149;28;20016;-61
2022/10/01 05:24:43;;;;;;;0.77;0.57;;;;;;;;;;5067956;28;20033;-61
2022/10/01 05:27:12;;;;;;;1.03;0.80;;;;;;;;;;5071185;28;20024;-61
2022/10/01 05:29:42;;;;;;;0.97;0.70;;;;;;;;;;5072878;28;20531;-61
2022/10/01 05:32:09;;;;;;;4.03;0.90;;;;;;;;;;5072939;28;20035;-61
2022/10/01 05:34:36;;;;;;;2.27;0.93;;;;;;;;;;5072954;28;20048;-61
2022/10/01 05:37:02;;;;;;;0.73;0.60;;;;;;;;;;5072328;28;20020;-62
2022/10/01 05:39:30;;;;;;;1.10;0.60;;;;;;;;;;5067691;28;20463;-61
2022/10/01 05:41:57;;;;;;;12.97;1.17;;;;;;;;;;5067526;28;20104;-61
2022/10/01 05:44:25;;;;;;;0.63;0.60;;;;;;;;;;5067501;28;20021;-61
2022/10/01 05:46:52;;;;;;;0.77;0.73;;;;;;;;;;5067724;28;20020;-60
2022/10/01 05:49:19;;;;;;;1.57;0.50;;;;;;;;;;5071738;28;20069;-61
2022/10/01 05:51:46;;;;;;;0.30;0.30;;;;;;;;;;5072592;28;20031;-61
2022/10/01 05:54:18;;;;;;;2.87;1.00;;;;;;;;;;5071487;28;20033;-62
2022/10/01 05:56:45;;;;;;;1.27;0.80;;;;;;;;;;5071599;28;20050;-62
2022/10/01 05:59:12;;;;;;;0.30;0.30;;;;;;;;;;5072686;28;20028;-61
2022/10/01 06:01:38;;;;;;;1.23;0.83;;;;;;;;;;5068051;28;20036;-61
2022/10/01 06:04:05;;;;;;;0.70;0.60;;;;;;;;;;5067576;28;20024;-62
2022/10/01 06:06:31;;;;;;;0.70;0.70;;;;;;;;;;5067452;28;20052;-62
2022/10/01 06:08:59;;;;;;;1.20;0.87;;;;;;;;;;5067147;28;20028;-62
2022/10/01 06:11:26;;;;;;;0.53;0.47;;;;;;;;;;5070868;28;20043;-61
2022/10/01 06:13:52;;;;;;;1.10;0.63;;;;;;;;;;5071673;28;20024;-62
2022/10/01 06:16:19;;;;;;;4.27;0.77;;;;;;;;;;5072455;28;20032;-60
2022/10/01 06:18:47;;;;;;;1.17;0.67;;;;;;;;;;5072284;28;20467;-62
2022/10/01 06:21:14;;;;;;;0.80;0.50;;;;;;;;;;5072329;28;20020;-62
2022/10/01 06:23:43;;;;;;;0.40;0.40;;;;;;;;;;5068047;28;20054;-62
2022/10/01 06:26:10;;;;;;;1.20;0.67;;;;;;;;;;5049320;28;20052;-62
2022/10/01 06:28:37;;;;;;;0.87;0.70;;;;;;;;;;5066959;28;20373;-62
2022/10/01 06:31:04;;;;;;;0.50;0.50;;;;;;;;;;5066962;28;20787;-62
2022/10/01 06:33:31;;;;;;;3.27;0.90;;;;;;;;;;5070450;28;20055;-63
2022/10/01 06:35:58;;;;;;;1.00;0.60;;;;;;;;;;5072359;28;20479;-61
2022/10/01 06:38:25;;;;;;;2.47;0.97;;;;;;;;;;5071749;28;20021;-61
2022/10/01 06:40:56;;;;;;;0.60;0.50;;;;;;;;;;5072099;28;20417;-60
2022/10/01 06:43:23;;;;;;;1.40;0.83;;;;;;;;;;5072198;28;20467;-61
2022/10/01 06:45:50;;;;;;;1.23;0.90;;;;;;;;;;5068356;28;20017;-61
2022/10/01 06:48:18;;;;;;;0.50;0.43;;;;;;;;;;5067038;28;20036;-61
2022/10/01 06:50:46;;;;;;;0.67;0.53;;;;;;;;;;5070844;28;20040;-60
2022/10/01 06:53:13;;;;;;;1.90;0.87;;;;;;;;;;5070520;28;20064;-61
2022/10/01 06:55:40;;;;;;;0.57;0.40;;;;;;;;;;5073905;28;20028;-61
2022/10/01 06:58:12;;;;;;;0.73;0.53;;;;;;;;;;5075897;28;20020;-62
2022/10/01 07:00:39;;;;;;;1.80;0.83;;;;;;;;;;5075990;28;20024;-61
2022/10/01 07:03:09;;;;;;;2.00;0.97;;;;;;;;;;5075079;28;20036;-61
2022/10/01 07:05:37;;;;;;;0.50;0.50;;;;;;;;;;5075800;28;20020;-61
2022/10/01 07:08:04;;;;;;;3.13;1.13;;;;;;;;;;5071984;28;20739;-61
2022/10/01 07:10:33;;;;;;;0.87;0.63;;;;;;;;;;5070454;28;20032;-61
2022/10/01 07:13:06;;;;;;;0.73;0.67;;;;;;;;;;5070214;28;20029;-61
2022/10/01 07:15:33;;;;;;;2.20;0.87;;;;;;;;;;5070227;28;20033;-61
2022/10/01 07:18:00;;;;;;;0.77;0.63;;;;;;;;;;5073475;28;20096;-61
2022/10/01 07:20:27;;;;;;;0.73;0.50;;;;;;;;;;5075324;28;20036;-61
2022/10/01 07:22:58;;;;;;;0.80;0.60;;;;;;;;;;5075414;28;20376;-61
2022/10/01 07:25:25;;;;;;;0.30;0.30;;;;;;;;;;5075247;28;20074;-61
2022/10/01 07:27:55;;;;;;;1.07;0.63;;;;;;;;;;5074992;28;20031;-61
2022/10/01 07:30:22;;;;;;;1.13;0.80;;;;;;;;;;5071565;28;20086;-61
2022/10/01 07:32:49;;;;;;;0.47;0.47;;;;;;;;;;5069626;28;20396;-62
2022/10/01 07:35:18;;;;;;;0.50;0.50;;;;;;;;;;5070099;28;20383;-61
2022/10/01 07:37:45;;;;;;;0.93;0.80;;;;;;;;;;5069963;28;20056;-61
2022/10/01 07:40:15;;;;;;;1.00;0.90;;;;;;;;;;5072872;28;20024;-61
2022/10/01 07:42:42;;;;;;;2.27;0.90;;;;;;;;;;5074583;28;20078;-61
2022/10/01 07:45:09;;;;;;;0.50;0.50;;;;;;;;;;5074914;28;20056;-61
2022/10/01 07:47:35;;;;;;;0.73;0.63;;;;;;;;;;5075042;28;20040;-61
2022/10/01 07:50:02;;;;;;;0.53;0.43;;;;;;;;;;5074793;28;20028;-61
2022/10/01 07:52:29;;;;;;;2.40;0.60;;;;;;;;;;5071814;28;20025;-60
2022/10/01 07:54:55;;;;;;;1.80;1.20;;;;;;;;;;5069399;28;20104;-62
2022/10/01 07:57:22;;;;;;;0.67;0.50;;;;;;;;;;5069877;28;20025;-62
2022/10/01 07:59:49;;;;;;;3.13;1.40;;;;;;;;;;5069170;28;20029;-60
2022/10/01 08:02:17;;;;;;;0.57;0.47;;;;;;;;;;5071270;28;20025;-61
2022/10/01 08:07:30;;;;;;;1.48;0.90;;;;;;;;;;5074483;28;20393;-61
2022/10/01 08:09:57;;;;;;;0.53;0.53;;;;;;;;;;5073885;28;20029;-61
2022/10/01 08:12:29;;;;;;;1.43;0.93;;;;;;;;;;5074630;28;20028;-62
2022/10/01 08:14:56;;;;;;;0.57;0.50;;;;;;;;;;5071131;28;20094;-62
2022/10/01 08:17:22;;;;;;;0.83;0.73;;;;;;;;;;5069340;28;20020;-60
2022/10/01 08:19:49;;;;;;;0.60;0.60;;;;;;;;;;5069297;28;20071;-61
2022/10/01 08:22:16;;;;;;;1.73;0.77;;;;;;;;;;5069196;28;20078;-61
2022/10/01 08:24:43;;;;;;;0.37;0.37;;;;;;;;;;5071389;28;20548;-61
2022/10/01 08:27:10;;;;;;;5.10;0.77;;;;;;;;;;5073938;28;20031;-61
2022/10/01 08:29:37;;;;;;;0.60;0.60;;;;;;;;;;5074132;28;20024;-61
2022/10/01 08:32:03;;;;;;;1.53;1.17;;;;;;;;;;5074310;28;20030;-61
2022/10/01 08:34:30;;;;;;;4.90;1.03;;;;;;;;;;5074124;28;20062;-61
2022/10/01 08:36:56;;;;;;;1.73;1.23;;;;;;;;;;5070836;28;20039;-61
2022/10/01 08:39:23;;;;;;;1.17;0.67;;;;;;;;;;5068990;28;20431;-61
2022/10/01 08:41:54;;;;;;;1.47;0.80;;;;;;;;;;5068681;28;20447;-61
2022/10/01 08:44:28;;;;;;;0.70;0.70;;;;;;;;;;5069034;28;20379;-62
2022/10/01 08:47:01;;;;;;;0.53;0.43;;;;;;;;;;5071135;28;20467;-61
2022/10/01 08:49:31;;;;;;;3.43;1.77;;;;;;;;;;5073692;28;20080;-61
2022/10/01 08:52:03;;;;;;;1.37;1.03;;;;;;;;;;5073160;28;20032;-61
2022/10/01 08:54:40;;;;;;;1.23;0.80;;;;;;;;;;5073337;28;20028;-61
2022/10/01 08:57:12;;;;;;;4.10;0.57;;;;;;;;;;5073655;28;20490;-61
2022/10/01 08:59:39;;;;;;;1.40;1.07;;;;;;;;;;5070001;28;20107;-60
2022/10/01 09:02:15;;;;;;;1.63;0.87;;;;;;;;;;5067948;28;20048;-61
2022/10/01 09:04:42;;;;;;;1.73;1.00;;;;;;;;;;5048130;28;20781;-61
2022/10/01 09:07:27;;;;;;;1.47;0.93;;;;;;;;;;5050396;28;20029;-61
2022/10/01 09:10:20;;;;;;;3.75;2.35;;;;;;;;;;5072029;28;20048;-61
2022/10/01 09:12:58;;;;;;;6.33;2.00;;;;;;;;;;5068863;28;20036;-60
2022/10/01 09:15:27;;;;;;;4.00;1.37;;;;;;;;;;5058588;28;20017;-61
2022/10/01 09:18:12;;;;;;;1.50;1.07;;;;;;;;;;5053160;28;20044;-60
2022/10/01 09:20:41;;;;;;;2.00;1.05;;;;;;;;;;5051370;28;20540;-62
2022/10/01 09:23:19;;;;;;;2.73;2.10;;;;;;;;;;5048176;28;20032;-61
2022/10/01 09:25:49;;;;;;;2.03;1.53;;;;;;;;;;5048147;28;20409;-61
2022/10/01 09:28:24;;;;;;;5.13;2.07;;;;;;;;;;5047910;28;20515;-61
2022/10/01 09:30:57;;;;;;;1.83;0.70;;;;;;;;;;5048482;28;20033;-61
2022/10/01 09:33:29;;;;;;;2.80;0.80;;;;;;;;;;5053001;28;20048;-60
2022/10/01 09:35:56;;;;;;;1.33;0.60;;;;;;;;;;5052700;28;20095;-60
2022/10/01 09:38:23;;;;;;;1.63;0.60;;;;;;;;;;5052946;28;20047;-61
2022/10/01 09:40:53;;;;;;;2.47;0.80;;;;;;;;;;5052663;28;20025;-61
2022/10/01 09:43:22;;;;;;;2.53;1.07;;;;;;;;;;5050765;28;20028;-61
2022/10/01 09:45:49;;;;;;;1.37;0.83;;;;;;;;;;5047530;28;20035;-60
2022/10/01 09:48:20;;;;;;;1.50;1.00;;;;;;;;;;5058649;28;20024;-61
2022/10/01 09:50:54;;;;;;;1.60;1.00;;;;;;;;;;5067548;28;20063;-60
2022/10/01 09:53:24;;;;;;;0.97;0.80;;;;;;;;;;5069257;28;20468;-60
2022/10/01 09:55:53;;;;;;;0.53;0.43;;;;;;;;;;5072319;28;20361;-60
2022/10/01 09:58:24;;;;;;;0.70;0.70;;;;;;;;;;5072805;28;20108;-61
2022/10/01 10:00:52;;;;;;;2.83;1.40;;;;;;;;;;5072505;28;20032;-61
2022/10/01 10:03:22;;;;;;;0.43;0.43;;;;;;;;;;5072479;28;20024;-61
2022/10/01 10:05:49;;;;;;;0.93;0.63;;;;;;;;;;5070290;28;20021;-61
2022/10/01 10:08:22;;;;;;;1.07;0.87;;;;;;;;;;5067217;28;20052;-60
2022/10/01 10:10:51;;;;;;;1.10;1.00;;;;;;;;;;5066924;28;20081;-60
2022/10/01 10:13:21;;;;;;;0.63;0.53;;;;;;;;;;5067237;28;20098;-61
2022/10/01 10:15:52;;;;;;;1.77;0.70;;;;;;;;;;5068845;28;20107;-61
2022/10/01 10:18:24;;;;;;;1.70;1.00;;;;;;;;;;5052446;28;20021;-61
2022/10/01 10:20:52;;;;;;;0.33;0.33;;;;;;;;;;5052425;28;20078;-60
2022/10/01 10:23:20;;;;;;;1.10;0.53;;;;;;;;;;5052391;28;20168;-61
2022/10/01 10:26:01;;;;;;;0.80;0.67;;;;;;;;;;5059020;28;20064;-61
2022/10/01 10:28:30;;;;;;;0.80;0.73;;;;;;;;;;5055634;28;20020;-61
2022/10/01 10:30:57;;;;;;;0.20;0.20;;;;;;;;;;5054028;28;20025;-61
2022/10/01 10:33:25;;;;;;;1.43;1.17;;;;;;;;;;5053799;28;20020;-60
2022/10/01 10:36:03;;;;;;;1.03;0.77;;;;;;;;;;5053362;28;20089;-61
2022/10/01 10:38:31;;;;;;;0.47;0.40;;;;;;;;;;5056676;28;20099;-61
2022/10/01 10:40:57;;;;;;;1.70;1.20;;;;;;;;;;5058847;28;20329;-61
2022/10/01 10:43:30;;;;;;;0.67;0.60;;;;;;;;;;5058618;28;20024;-61
2022/10/01 10:45:57;;;;;;;1.33;0.97;;;;;;;;;;5070661;28;20040;-61
2022/10/01 10:48:27;;;;;;;1.17;0.97;;;;;;;;;;5078501;28;20029;-61
2022/10/01 10:51:04;;;;;;;0.30;0.30;;;;;;;;;;5075331;28;20056;-60
2022/10/01 10:53:42;;;;;;;1.03;0.90;;;;;;;;;;5073514;28;20032;-61
2022/10/01 10:56:22;;;;;;;1.70;0.93;;;;;;;;;;5073684;28;20025;-60
2022/10/01 10:58:49;;;;;;;1.13;1.03;;;;;;;;;;5073659;28;20077;-62
2022/10/01 11:01:18;;;;;;;0.40;0.40;;;;;;;;;;5077272;28;20052;-61
2022/10/01 11:03:52;;;;;;;1.40;1.20;;;;;;;;;;5078630;28;20025;-61
2022/10/01 11:06:19;;;;;;;0.90;0.67;;;;;;;;;;5078707;28;20079;-61
2022/10/01 11:08:57;;;;;;;1.17;0.97;;;;;;;;;;5078350;28;20265;-60
2022/10/01 11:11:43;;;;;;;0.60;0.60;;;;;;;;;;5078513;28;20078;-60
2022/10/01 11:14:10;;;;;;;1.17;1.07;;;;;;;;;;5068782;28;20021;-61
2022/10/01 11:16:58;;;;;;;0.60;0.60;;;;;;;;;;5053449;28;20258;-61
2022/10/01 11:19:28;;;;;;;0.77;0.73;;;;;;;;;;5053320;28;20081;-61
2022/10/01 11:21:58;;;;;;;1.60;1.17;;;;;;;;;;5053857;28;20274;-61
2022/10/01 11:24:44;;;;;;;0.97;0.87;;;;;;;;;;5058315;28;20253;-61
2022/10/01 11:27:21;;;;;;;1.03;0.83;;;;;;;;;;5058188;28;20107;-61
2022/10/01 11:29:51;;;;;;;1.57;0.60;;;;;;;;;;5058274;28;20292;-61
2022/10/01 11:32:33;;;;;;;1.47;1.13;;;;;;;;;;5058285;28;20258;-61
2022/10/01 11:35:06;;;;;;;0.90;0.80;;;;;;;;;;5061184;28;20262;-60
2022/10/01 11:37:40;;;;;;;0.70;0.53;;;;;;;;;;5069935;28;20664;-61
2022/10/01 11:40:36;;;;;;;0.77;0.77;;;;;;;;;;5070102;28;20261;-61
2022/10/01 11:43:02;;;;;;;;;;;;;;;;;;5052947;28;20052;-61
2022/10/01 11:45:31;;;;;;;2.00;0.90;;;;;;;;;;5073284;28;20344;-61
2022/10/01 11:48:05;;;;;;;1.60;1.20;;;;;;;;;;5075033;28;20249;-61
2022/10/01 11:50:34;;;;;;;1.20;1.10;;;;;;;;;;5074793;28;20293;-62
2022/10/01 11:53:04;;;;;;;1.10;0.77;;;;;;;;;;5074829;28;20285;-60
2022/10/01 12:01:17;;;;;;;3.00;1.17;;;;;;;;;;5068994;28;20323;-61
2022/10/01 12:03:53;;;;;;;0.70;0.57;;;;;;;;;;5069769;28;20265;-61
2022/10/01 12:06:29;;;;;;;1.77;1.17;;;;;;;;;;5069726;28;20292;-61
2022/10/01 12:09:09;;;;;;;2.77;1.33;;;;;;;;;;5074259;28;20250;-61
2022/10/01 12:11:51;;;;;;;0.53;0.53;;;;;;;;;;5074604;28;20621;-61
2022/10/01 12:14:24;;;;;;;0.40;0.40;;;;;;;;;;5069096;28;20251;-60
2022/10/01 12:16:54;;;;;;;1.30;1.00;;;;;;;;;;5054444;28;20329;-61
2022/10/01 12:19:26;;;;;;;1.27;0.90;;;;;;;;;;5052019;28;20823;-61
2022/10/01 12:22:06;;;;;;;0.83;0.70;;;;;;;;;;5049403;28;20262;-60
2022/10/01 12:24:39;;;;;;;0.97;0.60;;;;;;;;;;5049291;28;20254;-61
2022/10/01 12:27:26;;;;;;;1.13;0.63;;;;;;;;;;5049170;28;20284;-60
2022/10/01 12:30:11;;;;;;;1.43;1.07;;;;;;;;;;5055920;28;20289;-61
2022/10/01 12:32:49;;;;;;;0.45;0.45;;;;;;;;;;5054191;28;20794;-61
2022/10/01 12:35:16;;;;;;;1.03;0.93;;;;;;;;;;5057556;28;20066;-61
2022/10/01 12:37:53;;;;;;;1.00;0.80;;;;;;;;;;5073115;28;20362;-61
2022/10/01 12:40:25;;;;;;;1.43;1.03;;;;;;;;;;5073813;28;20260;-61
2022/10/01 12:43:01;;;;;;;1.30;1.07;;;;;;;;;;5069296;28;20261;-61
2022/10/01 12:45:27;;;;;;;0.73;0.70;;;;;;;;;;5068701;28;20261;-62
2022/10/01 12:47:54;;;;;;;3.73;1.37;;;;;;;;;;5068402;28;20261;-61
2022/10/01 12:50:39;;;;;;;1.80;1.27;;;;;;;;;;5068281;28;20289;-62
2022/10/01 12:53:12;;;;;;;10.25;1.35;;;;;;;;;;5053523;28;20254;-61
2022/10/01 12:55:49;;;;;;;0.50;0.50;;;;;;;;;;5053539;28;20025;-62
2022/10/01 12:58:16;;;;;;;1.33;1.03;;;;;;;;;;5053756;28;20250;-62
2022/10/01 13:00:58;;;;;;;0.97;0.87;;;;;;;;;;5053455;28;20304;-62
2022/10/01 13:03:35;;;;;;;1.10;1.00;;;;;;;;;;5052399;28;20258;-62
2022/10/01 13:06:14;;;;;;;12.07;1.87;;;;;;;;;;5054915;28;20297;-61
2022/10/01 13:08:47;;;;;;;2.17;1.23;;;;;;;;;;5068313;28;20683;-62
2022/10/01 13:11:19;;;;;;;1.17;0.97;;;;;;;;;;5068087;28;20798;-62
2022/10/01 13:13:50;;;;;;;1.97;1.47;;;;;;;;;;5068822;28;20593;-62
2022/10/01 13:16:25;;;;;;;1.43;1.23;;;;;;;;;;5053063;28;20021;-61
2022/10/01 13:18:55;;;;;;;3.63;1.77;;;;;;;;;;5053085;28;20017;-62
2022/10/01 13:21:31;;;;;;;3.70;1.67;;;;;;;;;;5053131;28;20100;-62
2022/10/01 13:24:16;;;;;;;1.50;1.37;;;;;;;;;;5053147;28;20027;-61
2022/10/01 13:26:47;;;;;;;1.40;1.13;;;;;;;;;;5049962;28;20624;-62
2022/10/01 13:29:28;;;;;;;2.63;1.70;;;;;;;;;;5049457;28;20103;-62
2022/10/01 13:31:59;;;;;;;4.17;1.63;;;;;;;;;;5067884;28;20086;-62
2022/10/01 13:34:35;;;;;;;19.20;2.33;;;;;;;;;;5067295;28;20104;-62
2022/10/01 13:37:16;;;;;;;5.90;1.57;;;;;;;;;;5071486;28;20028;-62
2022/10/01 13:39:43;;;;;;;1.40;1.17;;;;;;;;;;5072730;28;20078;-62
2022/10/01 13:42:16;;;;;;;1.80;1.27;;;;;;;;;;5073105;28;20371;-62
2022/10/01 13:44:42;;;;;;;3.87;1.50;;;;;;;;;;5072552;28;20476;-62
2022/10/01 13:47:12;;;;;;;1.63;1.17;;;;;;;;;;5072922;28;20024;-62
2022/10/01 13:49:41;;;;;;;8.20;1.47;;;;;;;;;;5067873;28;20032;-62
2022/10/01 13:52:18;;;;;;;3.20;0.93;;;;;;;;;;5067298;28;20040;-62
2022/10/01 13:54:47;;;;;;;2.97;0.93;;;;;;;;;;5067539;28;20024;-61
2022/10/01 13:57:34;;;;;;;1.37;0.70;;;;;;;;;;5067088;28;20036;-62
2022/10/01 14:00:20;;;;;;;5.70;1.40;;;;;;;;;;5072299;28;20024;-62
2022/10/01 14:03:07;;;;;;;1.23;0.97;;;;;;;;;;5072170;28;20033;-63
2022/10/01 14:05:38;;;;;;;1.60;1.00;;;;;;;;;;5072571;28;20499;-63
2022/10/01 14:08:12;;;;;;;1.90;1.10;;;;;;;;;;5072398;28;20401;-63
2022/10/01 14:16:15;;;;;;;2.50;1.60;;;;;;;;;;5047279;28;20063;-61
2022/10/01 14:18:43;;;;;;;1.70;1.30;;;;;;;;;;5046927;28;20029;-61
2022/10/01 14:21:12;;;;;;;2.80;1.70;;;;;;;;;;5050300;28;20029;-61
2022/10/01 14:24:04;;;;;;;5.97;1.10;;;;;;;;;;5052292;28;20025;-61
2022/10/01 14:26:42;;;;;;;3.93;2.03;;;;;;;;;;5060740;28;20032;-62
2022/10/01 14:29:27;;;;;;;1.73;1.23;;;;;;;;;;5072220;28;20036;-61
2022/10/01 14:31:53;;;;;;;5.53;1.98;;;;;;;;;;5072316;28;20120;-61
2022/10/01 14:34:40;;;;;;;3.13;1.73;;;;;;;;;;5066968;28;20439;-62
2022/10/01 14:37:07;;;;;;;2.23;1.40;;;;;;;;;;5067873;28;20012;-61
2022/10/01 14:39:34;;;;;;;1.80;1.20;;;;;;;;;;5087318;28;20024;-62
2022/10/01 14:42:07;;;;;;;2.83;1.70;;;;;;;;;;5069801;28;20029;-62
2022/10/01 14:44:38;;;;;;;3.97;1.70;;;;;;;;;;5071904;28;20021;-62
2022/10/01 14:47:16;;;;;;;4.30;1.40;;;;;;;;;;5071853;28;20082;-61
2022/10/01 14:49:43;;;;;;;5.10;2.17;;;;;;;;;;5072293;28;20032;-62
2022/10/01 14:52:24;;;;;;;2.13;1.40;;;;;;;;;;5072603;28;20032;-62
2022/10/01 14:54:53;;;;;;;2.93;1.43;;;;;;;;;;5090636;28;20035;-62
2022/10/01 14:57:33;;;;;;;5.00;2.20;;;;;;;;;;5086860;28;20379;-62
2022/10/01 15:00:01;;;;;;;7.87;2.23;;;;;;;;;;5086834;28;20017;-62
2022/10/01 15:02:28;;;;;;;3.13;1.47;;;;;;;;;;5087034;28;20394;-62
2022/10/01 15:04:55;;;;;;;3.50;1.73;;;;;;;;;;5088600;28;20065;-61
2022/10/01 15:07:24;;;;;;;7.03;1.80;;;;;;;;;;5087976;28;20021;-62
2022/10/01 15:09:50;;;;;;;4.47;1.87;;;;;;;;;;5071626;28;20094;-63
2022/10/01 15:12:18;;;;;;;2.23;1.60;;;;;;;;;;5074239;28;20041;-61
2022/10/01 15:14:46;;;;;;;3.63;1.77;;;;;;;;;;5073961;28;20055;-61
2022/10/01 15:17:16;;;;;;;2.80;1.63;;;;;;;;;;5073515;28;20078;-62
2022/10/01 15:19:44;;;;;;;2.60;1.37;;;;;;;;;;5070444;28;20032;-62